sensor_id;sensor_type;location;lat;lon;timestamp;P1;durP1;ratioP1;P2;durP2;ratioP2
75246;SDS011;63844;50.042;19.224;2022-12-24T00:01:28;102.70;;;47.80;;
75246;SDS011;63844;50.042;19.224;2022-12-24T00:03:54;111.00;;;49.60;;
75246;SDS011;63844;50.042;19.224;2022-12-24T00:06:22;121.60;;;57.10;;
75246;SDS011;63844;50.042;19.224;2022-12-24T00:08:49;107.80;;;48.00;;
75246;SDS011;63844;50.042;19.224;2022-12-24T00:11:16;117.00;;;49.90;;
75246;SDS011;63844;50.042;19.224;2022-12-24T00:13:44;109.20;;;51.00;;
75246;SDS011;63844;50.042;19.224;2022-12-24T00:16:10;114.00;;;52.10;;
75246;SDS011;63844;50.042;19.224;2022-12-24T00:18:36;120.20;;;51.80;;
75246;SDS011;63844;50.042;19.224;2022-12-24T00:21:03;114.10;;;51.80;;
75246;SDS011;63844;50.042;19.224;2022-12-24T00:23:31;117.30;;;50.80;;
75246;SDS011;63844;50.042;19.224;2022-12-24T00:25:58;114.20;;;49.60;;
75246;SDS011;63844;50.042;19.224;2022-12-24T00:28:24;112.60;;;51.60;;
75246;SDS011;63844;50.042;19.224;2022-12-24T00:30:51;117.40;;;52.70;;
75246;SDS011;63844;50.042;19.224;2022-12-24T00:33:17;102.50;;;47.00;;
75246;SDS011;63844;50.042;19.224;2022-12-24T00:35:43;115.60;;;49.80;;
75246;SDS011;63844;50.042;19.224;2022-12-24T00:38:10;103.40;;;46.90;;
75246;SDS011;63844;50.042;19.224;2022-12-24T00:40:36;108.00;;;46.80;;
75246;SDS011;63844;50.042;19.224;2022-12-24T00:43:02;104.60;;;46.40;;
75246;SDS011;63844;50.042;19.224;2022-12-24T00:45:29;106.70;;;45.20;;
75246;SDS011;63844;50.042;19.224;2022-12-24T00:47:55;99.80;;;48.20;;
75246;SDS011;63844;50.042;19.224;2022-12-24T00:50:22;97.00;;;41.60;;
75246;SDS011;63844;50.042;19.224;2022-12-24T00:52:48;99.40;;;44.20;;
75246;SDS011;63844;50.042;19.224;2022-12-24T00:55:14;105.00;;;47.30;;
75246;SDS011;63844;50.042;19.224;2022-12-24T00:57:41;111.70;;;47.90;;
75246;SDS011;63844;50.042;19.224;2022-12-24T01:00:08;108.90;;;50.10;;
75246;SDS011;63844;50.042;19.224;2022-12-24T01:02:34;99.00;;;44.50;;
75246;SDS011;63844;50.042;19.224;2022-12-24T01:05:01;98.90;;;44.20;;
75246;SDS011;63844;50.042;19.224;2022-12-24T01:07:39;100.00;;;44.70;;
75246;SDS011;63844;50.042;19.224;2022-12-24T01:10:10;95.30;;;42.10;;
75246;SDS011;63844;50.042;19.224;2022-12-24T01:12:38;94.80;;;42.60;;
75246;SDS011;63844;50.042;19.224;2022-12-24T01:15:05;64.60;;;30.30;;
75246;SDS011;63844;50.042;19.224;2022-12-24T01:17:32;70.00;;;33.30;;
75246;SDS011;63844;50.042;19.224;2022-12-24T01:19:59;50.60;;;24.40;;
75246;SDS011;63844;50.042;19.224;2022-12-24T01:22:26;40.50;;;19.60;;
75246;SDS011;63844;50.042;19.224;2022-12-24T01:24:53;34.80;;;17.50;;
75246;SDS011;63844;50.042;19.224;2022-12-24T01:27:19;43.00;;;20.10;;
75246;SDS011;63844;50.042;19.224;2022-12-24T01:29:46;45.70;;;21.90;;
75246;SDS011;63844;50.042;19.224;2022-12-24T01:32:12;42.90;;;20.10;;
75246;SDS011;63844;50.042;19.224;2022-12-24T01:34:39;39.90;;;18.60;;
75246;SDS011;63844;50.042;19.224;2022-12-24T01:37:05;39.30;;;17.70;;
75246;SDS011;63844;50.042;19.224;2022-12-24T01:39:32;34.30;;;17.70;;
75246;SDS011;63844;50.042;19.224;2022-12-24T01:41:58;34.80;;;17.10;;
75246;SDS011;63844;50.042;19.224;2022-12-24T01:44:43;30.90;;;15.50;;
75246;SDS011;63844;50.042;19.224;2022-12-24T01:47:19;29.40;;;15.60;;
75246;SDS011;63844;50.042;19.224;2022-12-24T01:49:51;30.10;;;15.60;;
75246;SDS011;63844;50.042;19.224;2022-12-24T01:52:22;30.20;;;16.20;;
75246;SDS011;63844;50.042;19.224;2022-12-24T01:55:04;33.30;;;17.30;;
75246;SDS011;63844;50.042;19.224;2022-12-24T01:57:48;32.40;;;17.10;;
75246;SDS011;63844;50.042;19.224;2022-12-24T02:00:20;31.50;;;16.60;;
75246;SDS011;63844;50.042;19.224;2022-12-24T02:02:48;31.30;;;14.80;;
75246;SDS011;63844;50.042;19.224;2022-12-24T02:05:18;31.40;;;15.80;;
75246;SDS011;63844;50.042;19.224;2022-12-24T02:07:52;33.20;;;17.50;;
75246;SDS011;63844;50.042;19.224;2022-12-24T02:10:19;41.10;;;19.40;;
75246;SDS011;63844;50.042;19.224;2022-12-24T02:12:45;34.70;;;17.80;;
75246;SDS011;63844;50.042;19.224;2022-12-24T02:15:13;38.10;;;19.00;;
75246;SDS011;63844;50.042;19.224;2022-12-24T02:17:46;39.90;;;18.60;;
75246;SDS011;63844;50.042;19.224;2022-12-24T02:23:08;40.90;;;19.10;;
75246;SDS011;63844;50.042;19.224;2022-12-24T02:31:38;34.70;;;17.70;;
75246;SDS011;63844;50.042;19.224;2022-12-24T02:34:17;42.90;;;19.30;;
75246;SDS011;63844;50.042;19.224;2022-12-24T02:36:57;43.50;;;20.50;;
75246;SDS011;63844;50.042;19.224;2022-12-24T02:39:29;44.40;;;21.70;;
75246;SDS011;63844;50.042;19.224;2022-12-24T02:42:14;41.60;;;20.20;;
75246;SDS011;63844;50.042;19.224;2022-12-24T02:44:46;48.20;;;21.80;;
75246;SDS011;63844;50.042;19.224;2022-12-24T02:47:17;47.20;;;21.70;;
75246;SDS011;63844;50.042;19.224;2022-12-24T02:49:46;48.10;;;23.00;;
75246;SDS011;63844;50.042;19.224;2022-12-24T02:52:30;42.80;;;21.40;;
75246;SDS011;63844;50.042;19.224;2022-12-24T02:54:56;48.00;;;21.00;;
75246;SDS011;63844;50.042;19.224;2022-12-24T02:57:27;44.40;;;21.60;;
75246;SDS011;63844;50.042;19.224;2022-12-24T03:00:15;46.60;;;22.40;;
75246;SDS011;63844;50.042;19.224;2022-12-24T03:06:07;49.40;;;23.20;;
75246;SDS011;63844;50.042;19.224;2022-12-24T03:08:20;53.50;;;22.10;;
75246;SDS011;63844;50.042;19.224;2022-12-24T03:11:18;53.70;;;22.20;;
75246;SDS011;63844;50.042;19.224;2022-12-24T03:13:45;50.20;;;22.80;;
75246;SDS011;63844;50.042;19.224;2022-12-24T03:16:14;56.30;;;25.10;;
75246;SDS011;63844;50.042;19.224;2022-12-24T03:18:46;56.30;;;24.70;;
75246;SDS011;63844;50.042;19.224;2022-12-24T03:21:17;45.60;;;19.70;;
75246;SDS011;63844;50.042;19.224;2022-12-24T03:26:15;55.00;;;22.80;;
75246;SDS011;63844;50.042;19.224;2022-12-24T03:28:44;54.40;;;22.60;;
75246;SDS011;63844;50.042;19.224;2022-12-24T03:31:12;55.10;;;24.00;;
75246;SDS011;63844;50.042;19.224;2022-12-24T03:33:39;35.10;;;15.50;;
75246;SDS011;63844;50.042;19.224;2022-12-24T03:36:06;33.30;;;15.90;;
75246;SDS011;63844;50.042;19.224;2022-12-24T03:38:33;9.60;;;4.50;;
75246;SDS011;63844;50.042;19.224;2022-12-24T03:41:01;32.60;;;14.20;;
75246;SDS011;63844;50.042;19.224;2022-12-24T03:43:28;29.10;;;13.40;;
75246;SDS011;63844;50.042;19.224;2022-12-24T03:45:54;28.10;;;13.60;;
75246;SDS011;63844;50.042;19.224;2022-12-24T03:48:21;26.00;;;12.40;;
75246;SDS011;63844;50.042;19.224;2022-12-24T03:50:47;26.30;;;11.80;;
75246;SDS011;63844;50.042;19.224;2022-12-24T03:53:14;13.90;;;6.40;;
75246;SDS011;63844;50.042;19.224;2022-12-24T03:55:40;16.30;;;8.40;;
75246;SDS011;63844;50.042;19.224;2022-12-24T03:58:06;19.80;;;10.10;;
75246;SDS011;63844;50.042;19.224;2022-12-24T04:00:33;15.30;;;8.10;;
75246;SDS011;63844;50.042;19.224;2022-12-24T04:02:59;16.70;;;8.80;;
75246;SDS011;63844;50.042;19.224;2022-12-24T04:05:26;10.30;;;6.80;;
75246;SDS011;63844;50.042;19.224;2022-12-24T04:07:52;12.40;;;7.10;;
75246;SDS011;63844;50.042;19.224;2022-12-24T04:10:18;12.80;;;6.30;;
75246;SDS011;63844;50.042;19.224;2022-12-24T04:12:45;13.30;;;8.30;;
75246;SDS011;63844;50.042;19.224;2022-12-24T04:15:11;6.20;;;4.00;;
75246;SDS011;63844;50.042;19.224;2022-12-24T04:17:38;11.70;;;6.90;;
75246;SDS011;63844;50.042;19.224;2022-12-24T04:20:04;10.70;;;6.60;;
75246;SDS011;63844;50.042;19.224;2022-12-24T04:22:31;9.40;;;5.80;;
75246;SDS011;63844;50.042;19.224;2022-12-24T04:24:58;9.60;;;6.20;;
75246;SDS011;63844;50.042;19.224;2022-12-24T04:27:24;8.60;;;5.40;;
75246;SDS011;63844;50.042;19.224;2022-12-24T04:29:50;8.70;;;5.90;;
75246;SDS011;63844;50.042;19.224;2022-12-24T04:32:17;9.40;;;5.00;;
75246;SDS011;63844;50.042;19.224;2022-12-24T04:34:43;7.60;;;4.90;;
75246;SDS011;63844;50.042;19.224;2022-12-24T04:37:10;10.10;;;5.80;;
75246;SDS011;63844;50.042;19.224;2022-12-24T04:39:36;9.20;;;5.20;;
75246;SDS011;63844;50.042;19.224;2022-12-24T04:42:02;12.30;;;8.40;;
75246;SDS011;63844;50.042;19.224;2022-12-24T04:44:29;9.50;;;5.90;;
75246;SDS011;63844;50.042;19.224;2022-12-24T04:46:55;15.90;;;10.80;;
75246;SDS011;63844;50.042;19.224;2022-12-24T04:49:22;9.60;;;5.10;;
75246;SDS011;63844;50.042;19.224;2022-12-24T04:51:48;13.30;;;7.00;;
75246;SDS011;63844;50.042;19.224;2022-12-24T04:54:14;12.70;;;7.50;;
75246;SDS011;63844;50.042;19.224;2022-12-24T04:56:41;14.70;;;7.80;;
75246;SDS011;63844;50.042;19.224;2022-12-24T04:59:07;12.80;;;7.60;;
75246;SDS011;63844;50.042;19.224;2022-12-24T05:01:33;11.90;;;7.30;;
75246;SDS011;63844;50.042;19.224;2022-12-24T05:04:00;13.60;;;7.60;;
75246;SDS011;63844;50.042;19.224;2022-12-24T05:06:30;11.70;;;7.50;;
75246;SDS011;63844;50.042;19.224;2022-12-24T05:08:58;13.60;;;8.40;;
75246;SDS011;63844;50.042;19.224;2022-12-24T05:11:25;13.00;;;7.20;;
75246;SDS011;63844;50.042;19.224;2022-12-24T05:13:52;13.20;;;8.00;;
75246;SDS011;63844;50.042;19.224;2022-12-24T05:16:19;11.90;;;7.60;;
75246;SDS011;63844;50.042;19.224;2022-12-24T05:18:47;11.30;;;7.50;;
75246;SDS011;63844;50.042;19.224;2022-12-24T05:21:15;10.10;;;6.00;;
75246;SDS011;63844;50.042;19.224;2022-12-24T05:23:43;14.60;;;8.20;;
75246;SDS011;63844;50.042;19.224;2022-12-24T05:26:33;13.50;;;8.00;;
75246;SDS011;63844;50.042;19.224;2022-12-24T05:29:02;12.40;;;7.00;;
75246;SDS011;63844;50.042;19.224;2022-12-24T05:31:30;11.80;;;7.80;;
75246;SDS011;63844;50.042;19.224;2022-12-24T05:33:59;11.50;;;7.10;;
75246;SDS011;63844;50.042;19.224;2022-12-24T05:36:26;9.50;;;6.40;;
75246;SDS011;63844;50.042;19.224;2022-12-24T05:38:52;10.30;;;5.70;;
75246;SDS011;63844;50.042;19.224;2022-12-24T05:41:19;13.10;;;7.90;;
75246;SDS011;63844;50.042;19.224;2022-12-24T05:43:45;11.00;;;6.60;;
75246;SDS011;63844;50.042;19.224;2022-12-24T05:46:13;10.40;;;6.30;;
75246;SDS011;63844;50.042;19.224;2022-12-24T05:48:42;11.30;;;6.90;;
75246;SDS011;63844;50.042;19.224;2022-12-24T05:51:10;10.10;;;6.00;;
75246;SDS011;63844;50.042;19.224;2022-12-24T05:53:38;10.00;;;7.00;;
75246;SDS011;63844;50.042;19.224;2022-12-24T05:56:06;7.50;;;4.50;;
75246;SDS011;63844;50.042;19.224;2022-12-24T05:58:35;9.70;;;5.90;;
75246;SDS011;63844;50.042;19.224;2022-12-24T06:01:02;9.10;;;4.60;;
75246;SDS011;63844;50.042;19.224;2022-12-24T06:03:30;9.60;;;6.40;;
75246;SDS011;63844;50.042;19.224;2022-12-24T06:06:00;6.80;;;4.00;;
75246;SDS011;63844;50.042;19.224;2022-12-24T06:08:28;6.60;;;4.80;;
75246;SDS011;63844;50.042;19.224;2022-12-24T06:10:56;8.50;;;5.00;;
75246;SDS011;63844;50.042;19.224;2022-12-24T06:13:24;7.80;;;5.50;;
75246;SDS011;63844;50.042;19.224;2022-12-24T06:15:53;6.90;;;4.40;;
75246;SDS011;63844;50.042;19.224;2022-12-24T06:18:20;7.80;;;5.00;;
75246;SDS011;63844;50.042;19.224;2022-12-24T06:20:50;6.00;;;4.30;;
75246;SDS011;63844;50.042;19.224;2022-12-24T06:23:18;7.10;;;5.10;;
75246;SDS011;63844;50.042;19.224;2022-12-24T06:25:45;5.70;;;3.20;;
75246;SDS011;63844;50.042;19.224;2022-12-24T06:28:12;9.70;;;6.10;;
75246;SDS011;63844;50.042;19.224;2022-12-24T06:30:39;9.80;;;5.30;;
75246;SDS011;63844;50.042;19.224;2022-12-24T06:33:06;8.90;;;5.60;;
75246;SDS011;63844;50.042;19.224;2022-12-24T06:35:32;9.10;;;5.10;;
75246;SDS011;63844;50.042;19.224;2022-12-24T06:37:59;9.10;;;6.00;;
75246;SDS011;63844;50.042;19.224;2022-12-24T06:40:26;8.90;;;6.00;;
75246;SDS011;63844;50.042;19.224;2022-12-24T06:42:53;6.80;;;4.70;;
75246;SDS011;63844;50.042;19.224;2022-12-24T06:45:19;8.10;;;5.50;;
75246;SDS011;63844;50.042;19.224;2022-12-24T06:47:46;10.00;;;5.90;;
75246;SDS011;63844;50.042;19.224;2022-12-24T06:50:12;9.10;;;6.20;;
75246;SDS011;63844;50.042;19.224;2022-12-24T06:52:39;9.30;;;5.80;;
75246;SDS011;63844;50.042;19.224;2022-12-24T06:55:05;11.10;;;5.80;;
75246;SDS011;63844;50.042;19.224;2022-12-24T06:57:32;8.90;;;5.30;;
75246;SDS011;63844;50.042;19.224;2022-12-24T06:59:59;7.70;;;4.00;;
75246;SDS011;63844;50.042;19.224;2022-12-24T07:02:25;6.50;;;4.30;;
75246;SDS011;63844;50.042;19.224;2022-12-24T07:04:52;8.40;;;5.20;;
75246;SDS011;63844;50.042;19.224;2022-12-24T07:07:18;9.40;;;4.20;;
75246;SDS011;63844;50.042;19.224;2022-12-24T07:09:45;7.80;;;4.80;;
75246;SDS011;63844;50.042;19.224;2022-12-24T07:12:11;10.00;;;5.40;;
75246;SDS011;63844;50.042;19.224;2022-12-24T07:14:38;7.50;;;4.40;;
75246;SDS011;63844;50.042;19.224;2022-12-24T07:17:05;8.50;;;4.80;;
75246;SDS011;63844;50.042;19.224;2022-12-24T07:19:31;8.10;;;4.40;;
75246;SDS011;63844;50.042;19.224;2022-12-24T07:21:59;8.60;;;4.80;;
75246;SDS011;63844;50.042;19.224;2022-12-24T07:24:25;9.00;;;4.70;;
75246;SDS011;63844;50.042;19.224;2022-12-24T07:26:52;8.30;;;4.90;;
75246;SDS011;63844;50.042;19.224;2022-12-24T07:29:18;5.00;;;2.80;;
75246;SDS011;63844;50.042;19.224;2022-12-24T07:31:45;8.50;;;4.70;;
75246;SDS011;63844;50.042;19.224;2022-12-24T07:34:11;9.10;;;5.20;;
75246;SDS011;63844;50.042;19.224;2022-12-24T07:36:37;10.60;;;5.30;;
75246;SDS011;63844;50.042;19.224;2022-12-24T07:39:04;7.00;;;4.10;;
75246;SDS011;63844;50.042;19.224;2022-12-24T07:41:30;9.20;;;4.70;;
75246;SDS011;63844;50.042;19.224;2022-12-24T07:43:57;7.20;;;4.20;;
75246;SDS011;63844;50.042;19.224;2022-12-24T07:46:23;9.30;;;4.60;;
75246;SDS011;63844;50.042;19.224;2022-12-24T07:48:49;9.10;;;5.10;;
75246;SDS011;63844;50.042;19.224;2022-12-24T07:51:16;7.00;;;3.70;;
75246;SDS011;63844;50.042;19.224;2022-12-24T07:53:42;7.70;;;4.10;;
75246;SDS011;63844;50.042;19.224;2022-12-24T07:56:13;7.10;;;4.10;;
75246;SDS011;63844;50.042;19.224;2022-12-24T07:58:40;6.10;;;3.50;;
75246;SDS011;63844;50.042;19.224;2022-12-24T08:01:08;6.20;;;2.70;;
75246;SDS011;63844;50.042;19.224;2022-12-24T08:03:35;4.70;;;2.40;;
75246;SDS011;63844;50.042;19.224;2022-12-24T08:06:01;7.10;;;3.20;;
75246;SDS011;63844;50.042;19.224;2022-12-24T08:08:28;6.70;;;2.90;;
75246;SDS011;63844;50.042;19.224;2022-12-24T08:10:58;6.00;;;3.10;;
75246;SDS011;63844;50.042;19.224;2022-12-24T08:13:26;7.40;;;3.00;;
75246;SDS011;63844;50.042;19.224;2022-12-24T08:15:52;3.70;;;2.20;;
75246;SDS011;63844;50.042;19.224;2022-12-24T08:18:19;4.00;;;1.60;;
75246;SDS011;63844;50.042;19.224;2022-12-24T08:20:46;3.10;;;2.00;;
75246;SDS011;63844;50.042;19.224;2022-12-24T08:23:12;3.70;;;1.70;;
75246;SDS011;63844;50.042;19.224;2022-12-24T08:28:09;6.40;;;2.50;;
75246;SDS011;63844;50.042;19.224;2022-12-24T08:30:36;6.80;;;2.60;;
75246;SDS011;63844;50.042;19.224;2022-12-24T08:33:03;6.70;;;2.50;;
75246;SDS011;63844;50.042;19.224;2022-12-24T08:35:29;4.30;;;2.10;;
75246;SDS011;63844;50.042;19.224;2022-12-24T08:37:56;6.30;;;2.20;;
75246;SDS011;63844;50.042;19.224;2022-12-24T08:40:22;5.40;;;2.60;;
75246;SDS011;63844;50.042;19.224;2022-12-24T08:42:49;5.00;;;2.50;;
75246;SDS011;63844;50.042;19.224;2022-12-24T08:45:15;4.40;;;2.10;;
75246;SDS011;63844;50.042;19.224;2022-12-24T08:47:42;7.40;;;2.50;;
75246;SDS011;63844;50.042;19.224;2022-12-24T08:50:09;5.00;;;2.70;;
75246;SDS011;63844;50.042;19.224;2022-12-24T08:52:36;7.00;;;2.90;;
75246;SDS011;63844;50.042;19.224;2022-12-24T08:55:03;5.90;;;2.90;;
75246;SDS011;63844;50.042;19.224;2022-12-24T08:57:30;7.20;;;2.50;;
75246;SDS011;63844;50.042;19.224;2022-12-24T08:59:56;5.30;;;2.60;;
75246;SDS011;63844;50.042;19.224;2022-12-24T09:02:23;3.00;;;1.80;;
75246;SDS011;63844;50.042;19.224;2022-12-24T09:04:49;4.60;;;2.70;;
75246;SDS011;63844;50.042;19.224;2022-12-24T09:07:16;5.30;;;2.40;;
75246;SDS011;63844;50.042;19.224;2022-12-24T09:09:42;7.10;;;3.30;;
75246;SDS011;63844;50.042;19.224;2022-12-24T09:12:08;4.20;;;2.00;;
75246;SDS011;63844;50.042;19.224;2022-12-24T09:14:35;5.60;;;2.50;;
75246;SDS011;63844;50.042;19.224;2022-12-24T09:17:01;4.80;;;2.10;;
75246;SDS011;63844;50.042;19.224;2022-12-24T09:19:28;6.30;;;2.50;;
75246;SDS011;63844;50.042;19.224;2022-12-24T09:21:54;5.10;;;2.70;;
75246;SDS011;63844;50.042;19.224;2022-12-24T09:24:20;7.20;;;2.50;;
75246;SDS011;63844;50.042;19.224;2022-12-24T09:26:47;6.80;;;2.50;;
75246;SDS011;63844;50.042;19.224;2022-12-24T09:29:14;7.80;;;2.50;;
75246;SDS011;63844;50.042;19.224;2022-12-24T09:31:41;5.20;;;2.20;;
75246;SDS011;63844;50.042;19.224;2022-12-24T09:34:08;4.50;;;2.40;;
75246;SDS011;63844;50.042;19.224;2022-12-24T09:36:35;5.90;;;2.20;;
75246;SDS011;63844;50.042;19.224;2022-12-24T09:39:01;5.80;;;2.10;;
75246;SDS011;63844;50.042;19.224;2022-12-24T09:44:07;5.10;;;1.80;;
75246;SDS011;63844;50.042;19.224;2022-12-24T09:46:58;6.50;;;2.30;;
75246;SDS011;63844;50.042;19.224;2022-12-24T09:49:35;5.00;;;2.00;;
75246;SDS011;63844;50.042;19.224;2022-12-24T09:52:07;4.90;;;2.10;;
75246;SDS011;63844;50.042;19.224;2022-12-24T09:54:39;6.50;;;2.40;;
75246;SDS011;63844;50.042;19.224;2022-12-24T09:57:29;5.40;;;2.30;;
75246;SDS011;63844;50.042;19.224;2022-12-24T10:00:00;6.60;;;2.60;;
75246;SDS011;63844;50.042;19.224;2022-12-24T10:02:27;6.60;;;2.40;;
75246;SDS011;63844;50.042;19.224;2022-12-24T10:04:54;4.90;;;1.90;;
75246;SDS011;63844;50.042;19.224;2022-12-24T10:15:40;5.50;;;2.50;;
75246;SDS011;63844;50.042;19.224;2022-12-24T10:26:38;8.50;;;3.70;;
75246;SDS011;63844;50.042;19.224;2022-12-24T10:29:12;6.60;;;3.00;;
75246;SDS011;63844;50.042;19.224;2022-12-24T10:31:49;9.60;;;4.40;;
75246;SDS011;63844;50.042;19.224;2022-12-24T10:34:22;7.00;;;2.90;;
75246;SDS011;63844;50.042;19.224;2022-12-24T10:36:52;8.80;;;3.10;;
75246;SDS011;63844;50.042;19.224;2022-12-24T10:39:24;5.80;;;2.50;;
75246;SDS011;63844;50.042;19.224;2022-12-24T10:41:53;5.90;;;2.90;;
75246;SDS011;63844;50.042;19.224;2022-12-24T10:44:23;7.60;;;3.60;;
75246;SDS011;63844;50.042;19.224;2022-12-24T10:46:52;8.90;;;3.00;;
75246;SDS011;63844;50.042;19.224;2022-12-24T10:52:02;7.30;;;2.90;;
75246;SDS011;63844;50.042;19.224;2022-12-24T10:54:31;7.70;;;3.10;;
75246;SDS011;63844;50.042;19.224;2022-12-24T10:57:04;7.80;;;3.10;;
75246;SDS011;63844;50.042;19.224;2022-12-24T10:59:53;8.70;;;3.80;;
75246;SDS011;63844;50.042;19.224;2022-12-24T11:02:26;9.10;;;3.20;;
75246;SDS011;63844;50.042;19.224;2022-12-24T11:04:54;8.30;;;3.70;;
75246;SDS011;63844;50.042;19.224;2022-12-24T11:07:21;6.20;;;2.70;;
75246;SDS011;63844;50.042;19.224;2022-12-24T11:10:03;12.50;;;6.70;;
75246;SDS011;63844;50.042;19.224;2022-12-24T11:12:37;11.40;;;4.40;;
75246;SDS011;63844;50.042;19.224;2022-12-24T11:15:17;9.50;;;3.00;;
75246;SDS011;63844;50.042;19.224;2022-12-24T11:17:53;6.10;;;3.20;;
75246;SDS011;63844;50.042;19.224;2022-12-24T11:20:27;11.90;;;3.80;;
75246;SDS011;63844;50.042;19.224;2022-12-24T11:22:56;11.30;;;4.30;;
75246;SDS011;63844;50.042;19.224;2022-12-24T11:25:25;10.10;;;4.00;;
75246;SDS011;63844;50.042;19.224;2022-12-24T11:28:17;7.20;;;3.70;;
75246;SDS011;63844;50.042;19.224;2022-12-24T11:30:56;9.20;;;3.70;;
75246;SDS011;63844;50.042;19.224;2022-12-24T11:33:48;12.20;;;4.30;;
75246;SDS011;63844;50.042;19.224;2022-12-24T11:36:21;12.00;;;3.20;;
75246;SDS011;63844;50.042;19.224;2022-12-24T11:38:52;11.00;;;3.70;;
75246;SDS011;63844;50.042;19.224;2022-12-24T11:41:22;13.60;;;4.90;;
75246;SDS011;63844;50.042;19.224;2022-12-24T11:43:51;8.90;;;3.80;;
75246;SDS011;63844;50.042;19.224;2022-12-24T11:46:37;14.50;;;5.00;;
75246;SDS011;63844;50.042;19.224;2022-12-24T11:52:21;12.80;;;4.30;;
75246;SDS011;63844;50.042;19.224;2022-12-24T11:55:11;15.60;;;5.30;;
75246;SDS011;63844;50.042;19.224;2022-12-24T11:58:05;12.30;;;4.40;;
75246;SDS011;63844;50.042;19.224;2022-12-24T12:00:42;9.70;;;3.20;;
75246;SDS011;63844;50.042;19.224;2022-12-24T12:03:17;13.50;;;4.90;;
75246;SDS011;63844;50.042;19.224;2022-12-24T12:05:54;11.60;;;4.00;;
75246;SDS011;63844;50.042;19.224;2022-12-24T12:08:24;8.80;;;3.90;;
75246;SDS011;63844;50.042;19.224;2022-12-24T12:10:53;10.90;;;4.30;;
75246;SDS011;63844;50.042;19.224;2022-12-24T12:13:22;13.70;;;4.80;;
75246;SDS011;63844;50.042;19.224;2022-12-24T12:16:36;12.10;;;4.00;;
75246;SDS011;63844;50.042;19.224;2022-12-24T12:19:18;11.90;;;3.80;;
75246;SDS011;63844;50.042;19.224;2022-12-24T12:21:48;11.20;;;4.20;;
75246;SDS011;63844;50.042;19.224;2022-12-24T12:24:17;10.10;;;3.40;;
75246;SDS011;63844;50.042;19.224;2022-12-24T12:26:47;7.80;;;4.00;;
75246;SDS011;63844;50.042;19.224;2022-12-24T12:29:28;6.70;;;2.70;;
75246;SDS011;63844;50.042;19.224;2022-12-24T12:32:01;7.20;;;2.60;;
75246;SDS011;63844;50.042;19.224;2022-12-24T12:34:33;12.60;;;4.30;;
75246;SDS011;63844;50.042;19.224;2022-12-24T12:40:10;23.70;;;13.10;;
75246;SDS011;63844;50.042;19.224;2022-12-24T12:42:44;26.90;;;15.10;;
75246;SDS011;63844;50.042;19.224;2022-12-24T12:48:19;13.30;;;6.10;;
75246;SDS011;63844;50.042;19.224;2022-12-24T12:50:59;13.60;;;5.40;;
75246;SDS011;63844;50.042;19.224;2022-12-24T12:53:41;19.80;;;6.80;;
75246;SDS011;63844;50.042;19.224;2022-12-24T12:56:20;14.00;;;5.20;;
75246;SDS011;63844;50.042;19.224;2022-12-24T13:01:44;14.60;;;7.20;;
75246;SDS011;63844;50.042;19.224;2022-12-24T13:04:38;22.50;;;9.50;;
75246;SDS011;63844;50.042;19.224;2022-12-24T13:18:32;13.30;;;6.70;;
75246;SDS011;63844;50.042;19.224;2022-12-24T13:21:22;15.00;;;7.00;;
75246;SDS011;63844;50.042;19.224;2022-12-24T13:24:02;13.80;;;6.30;;
75246;SDS011;63844;50.042;19.224;2022-12-24T13:26:40;19.70;;;8.20;;
75246;SDS011;63844;50.042;19.224;2022-12-24T13:34:49;13.40;;;6.40;;
75246;SDS011;63844;50.042;19.224;2022-12-24T13:37:20;12.60;;;6.00;;
75246;SDS011;63844;50.042;19.224;2022-12-24T13:43:05;13.20;;;5.70;;
75246;SDS011;63844;50.042;19.224;2022-12-24T13:59:08;21.60;;;10.30;;
75246;SDS011;63844;50.042;19.224;2022-12-24T14:01:49;21.10;;;9.00;;
75246;SDS011;63844;50.042;19.224;2022-12-24T14:06:49;15.40;;;5.40;;
75246;SDS011;63844;50.042;19.224;2022-12-24T14:09:19;28.90;;;11.20;;
75246;SDS011;63844;50.042;19.224;2022-12-24T14:14:26;20.80;;;9.90;;
75246;SDS011;63844;50.042;19.224;2022-12-24T14:16:58;27.10;;;10.90;;
75246;SDS011;63844;50.042;19.224;2022-12-24T14:20:09;26.30;;;10.80;;
75246;SDS011;63844;50.042;19.224;2022-12-24T14:22:33;24.20;;;10.60;;
75246;SDS011;63844;50.042;19.224;2022-12-24T14:27:43;21.50;;;9.80;;
75246;SDS011;63844;50.042;19.224;2022-12-24T14:30:21;20.70;;;8.60;;
75246;SDS011;63844;50.042;19.224;2022-12-24T14:32:50;23.00;;;9.80;;
75246;SDS011;63844;50.042;19.224;2022-12-24T14:38:00;14.50;;;5.80;;
75246;SDS011;63844;50.042;19.224;2022-12-24T14:40:46;17.50;;;8.00;;
75246;SDS011;63844;50.042;19.224;2022-12-24T14:43:39;15.40;;;7.20;;
75246;SDS011;63844;50.042;19.224;2022-12-24T14:47:05;11.30;;;3.80;;
75246;SDS011;63844;50.042;19.224;2022-12-24T14:52:02;13.50;;;4.90;;
75246;SDS011;63844;50.042;19.224;2022-12-24T14:54:37;13.10;;;5.10;;
75246;SDS011;63844;50.042;19.224;2022-12-24T14:57:27;11.60;;;5.90;;
75246;SDS011;63844;50.042;19.224;2022-12-24T14:59:59;11.00;;;5.80;;
75246;SDS011;63844;50.042;19.224;2022-12-24T15:02:50;13.90;;;5.90;;
75246;SDS011;63844;50.042;19.224;2022-12-24T15:05:19;17.30;;;5.80;;
75246;SDS011;63844;50.042;19.224;2022-12-24T15:08:03;10.90;;;4.90;;
75246;SDS011;63844;50.042;19.224;2022-12-24T15:10:37;11.30;;;5.20;;
75246;SDS011;63844;50.042;19.224;2022-12-24T15:13:08;10.50;;;4.40;;
75246;SDS011;63844;50.042;19.224;2022-12-24T15:15:55;11.90;;;4.80;;
75246;SDS011;63844;50.042;19.224;2022-12-24T15:18:23;37.00;;;11.40;;
75246;SDS011;63844;50.042;19.224;2022-12-24T15:20:54;30.10;;;12.00;;
75246;SDS011;63844;50.042;19.224;2022-12-24T15:23:31;15.20;;;6.50;;
75246;SDS011;63844;50.042;19.224;2022-12-24T15:26:05;16.60;;;6.70;;
75246;SDS011;63844;50.042;19.224;2022-12-24T15:28:47;22.30;;;9.00;;
75246;SDS011;63844;50.042;19.224;2022-12-24T15:33:45;16.30;;;6.40;;
75246;SDS011;63844;50.042;19.224;2022-12-24T15:36:14;13.70;;;6.10;;
75246;SDS011;63844;50.042;19.224;2022-12-24T15:38:43;17.80;;;6.50;;
75246;SDS011;63844;50.042;19.224;2022-12-24T15:41:16;17.80;;;7.30;;
75246;SDS011;63844;50.042;19.224;2022-12-24T15:43:46;13.20;;;5.00;;
75246;SDS011;63844;50.042;19.224;2022-12-24T15:46:22;15.90;;;7.60;;
75246;SDS011;63844;50.042;19.224;2022-12-24T15:48:51;12.40;;;6.60;;
75246;SDS011;63844;50.042;19.224;2022-12-24T15:51:29;12.00;;;6.40;;
75246;SDS011;63844;50.042;19.224;2022-12-24T15:54:00;15.40;;;5.80;;
75246;SDS011;63844;50.042;19.224;2022-12-24T15:56:39;13.80;;;5.50;;
75246;SDS011;63844;50.042;19.224;2022-12-24T15:59:12;15.60;;;5.40;;
75246;SDS011;63844;50.042;19.224;2022-12-24T16:01:50;12.00;;;5.50;;
75246;SDS011;63844;50.042;19.224;2022-12-24T16:04:24;16.10;;;5.50;;
75246;SDS011;63844;50.042;19.224;2022-12-24T16:12:14;12.30;;;5.70;;
75246;SDS011;63844;50.042;19.224;2022-12-24T16:14:47;14.80;;;5.70;;
75246;SDS011;63844;50.042;19.224;2022-12-24T16:17:22;9.80;;;4.80;;
75246;SDS011;63844;50.042;19.224;2022-12-24T16:19:55;10.30;;;4.70;;
75246;SDS011;63844;50.042;19.224;2022-12-24T16:22:25;7.80;;;3.80;;
75246;SDS011;63844;50.042;19.224;2022-12-24T16:24:58;11.40;;;5.10;;
75246;SDS011;63844;50.042;19.224;2022-12-24T16:27:26;9.90;;;4.10;;